createdAt,value
2023-11-01T00:01:58.756Z,100.00
2023-11-01T00:04:29.300Z,100.00
2023-11-01T00:07:01.520Z,100.00
2023-11-01T00:09:31.040Z,100.00
2023-11-01T00:12:08.128Z,100.00
2023-11-01T00:14:37.369Z,100.00
2023-11-01T00:17:08.741Z,100.00
2023-11-01T00:19:40.854Z,100.00
2023-11-01T00:22:10.795Z,100.00
2023-11-01T00:24:44.221Z,100.00
2023-11-01T00:27:14.726Z,100.00
2023-11-01T00:29:46.235Z,100.00
2023-11-01T00:32:21.008Z,100.00
2023-11-01T00:34:53.478Z,100.00
2023-11-01T00:37:29.251Z,100.00
2023-11-01T00:39:59.861Z,100.00
2023-11-01T00:42:28.818Z,100.00
2023-11-01T00:44:57.696Z,100.00
2023-11-01T00:47:26.703Z,100.00
2023-11-01T00:49:56.844Z,100.00
2023-11-01T00:52:28.929Z,100.00
2023-11-01T00:54:58.064Z,100.00
2023-11-01T00:57:28.279Z,100.00
2023-11-01T00:59:57.763Z,100.00
2023-11-01T01:02:29.425Z,100.00
2023-11-01T01:05:00.545Z,100.00
2023-11-01T01:07:30.372Z,100.00
2023-11-01T01:09:59.652Z,100.00
2023-11-01T01:12:28.978Z,100.00
2023-11-01T01:14:59.216Z,100.00
2023-11-01T01:17:29.566Z,100.00
2023-11-01T01:20:00.111Z,100.00
2023-11-01T01:22:29.847Z,100.00
2023-11-01T01:25:02.113Z,100.00
2023-11-01T01:27:37.003Z,100.00
2023-11-01T01:30:06.562Z,100.00
2023-11-01T01:32:37.208Z,100.00
2023-11-01T01:35:10.412Z,100.00
2023-11-01T01:37:42.170Z,100.00
2023-11-01T01:40:18.156Z,100.00
2023-11-01T01:42:46.984Z,100.00
2023-11-01T01:45:15.958Z,100.00
2023-11-01T01:47:45.367Z,100.00
2023-11-01T01:50:16.482Z,100.00
2023-11-01T01:52:48.225Z,100.00
2023-11-01T01:55:19.417Z,100.00
2023-11-01T01:57:51.049Z,100.00
2023-11-01T02:00:21.604Z,100.00
2023-11-01T02:02:53.927Z,100.00
2023-11-01T02:05:25.641Z,100.00
2023-11-01T02:07:55.723Z,100.00
2023-11-01T02:10:26.928Z,100.00
2023-11-01T02:12:56.062Z,100.00
2023-11-01T02:15:27.911Z,100.00
2023-11-01T02:17:58.181Z,100.00
2023-11-01T02:20:30.066Z,100.00
2023-11-01T02:22:59.565Z,100.00
2023-11-01T02:25:30.026Z,100.00
2023-11-01T02:27:59.764Z,100.00
2023-11-01T02:30:30.732Z,100.00
2023-11-01T02:33:00.198Z,100.00
2023-11-01T02:35:29.861Z,100.00
2023-11-01T02:38:01.058Z,100.00
2023-11-01T02:40:31.582Z,100.00
2023-11-01T02:43:01.931Z,100.00
2023-11-01T02:45:30.786Z,100.00
2023-11-01T02:48:01.431Z,100.00
2023-11-01T02:50:32.052Z,100.00
2023-11-01T02:53:02.331Z,100.00
2023-11-01T02:55:36.372Z,100.00
2023-11-01T02:58:06.748Z,100.00
2023-11-01T03:00:36.446Z,100.00
2023-11-01T03:03:07.509Z,100.00
2023-11-01T03:05:36.996Z,100.00
2023-11-01T03:08:06.725Z,100.00
2023-11-01T03:10:37.159Z,100.00
2023-11-01T03:13:07.337Z,100.00
2023-11-01T03:15:36.677Z,100.00
2023-11-01T03:18:06.098Z,100.00
2023-11-01T03:20:35.509Z,100.00
2023-11-01T03:23:05.169Z,100.00
2023-11-01T03:25:35.078Z,100.00
2023-11-01T03:28:06.403Z,100.00
2023-11-01T03:30:35.626Z,100.00
2023-11-01T03:33:05.178Z,100.00
2023-11-01T03:35:34.174Z,100.00
2023-11-01T03:38:05.846Z,100.00
2023-11-01T03:40:35.294Z,100.00
2023-11-01T03:43:07.399Z,100.00
2023-11-01T03:45:37.996Z,100.00
2023-11-01T03:48:07.507Z,100.00
2023-11-01T03:50:37.148Z,100.00
2023-11-01T03:53:06.700Z,100.00
2023-11-01T03:55:35.885Z,100.00
2023-11-01T03:58:07.369Z,100.00
2023-11-01T04:00:37.391Z,100.00
2023-11-01T04:03:06.985Z,100.00
2023-11-01T04:05:39.151Z,100.00
2023-11-01T04:08:08.551Z,100.00
2023-11-01T04:10:39.084Z,100.00
2023-11-01T04:13:11.841Z,100.00
2023-11-01T04:15:41.174Z,100.00
2023-11-01T04:18:14.851Z,100.00
2023-11-01T04:20:44.098Z,100.00
2023-11-01T04:23:13.106Z,100.00
2023-11-01T04:25:44.184Z,100.00
2023-11-01T04:28:15.483Z,100.00
2023-11-01T04:30:45.382Z,100.00
2023-11-01T04:33:17.458Z,100.00
2023-11-01T04:35:46.978Z,100.00
2023-11-01T04:38:19.950Z,100.00
2023-11-01T04:40:50.648Z,100.00
2023-11-01T04:43:21.562Z,100.00
2023-11-01T04:45:50.816Z,100.00
2023-11-01T04:48:22.078Z,100.00
2023-11-01T04:50:56.923Z,100.00
2023-11-01T04:53:29.292Z,100.00
2023-11-01T04:55:59.607Z,100.00
2023-11-01T04:58:32.528Z,100.00
2023-11-01T05:01:06.678Z,100.00
2023-11-01T05:03:40.198Z,100.00
2023-11-01T05:06:09.893Z,100.00
2023-11-01T05:08:38.893Z,100.00
2023-11-01T05:11:11.877Z,100.00
2023-11-01T05:13:43.194Z,100.00
2023-11-01T05:16:12.287Z,100.00
2023-11-01T05:18:41.273Z,100.00
2023-11-01T05:21:11.064Z,100.00
2023-11-01T05:23:40.540Z,100.00
2023-11-01T05:26:16.921Z,100.00
2023-11-01T05:28:51.351Z,100.00
2023-11-01T05:31:21.633Z,100.00
2023-11-01T05:33:53.135Z,100.00
2023-11-01T05:36:22.114Z,100.00
2023-11-01T05:38:52.331Z,100.00
2023-11-01T05:41:22.611Z,100.00
2023-11-01T05:43:56.158Z,100.00
2023-11-01T05:46:25.601Z,100.00
2023-11-01T05:48:54.518Z,100.00
2023-11-01T05:51:23.714Z,100.00
2023-11-01T05:53:53.682Z,100.00
2023-11-01T05:56:24.338Z,100.00
2023-11-01T05:58:56.944Z,100.00
2023-11-01T06:01:26.393Z,100.00
2023-11-01T06:03:58.860Z,100.00
2023-11-01T06:06:31.097Z,100.00
2023-11-01T06:08:59.930Z,100.00
2023-11-01T06:11:29.811Z,100.00
2023-11-01T06:14:00.745Z,100.00
2023-11-01T06:16:29.611Z,100.00
2023-11-01T06:18:58.895Z,100.00
2023-11-01T06:21:28.253Z,100.00
2023-11-01T06:23:59.119Z,100.00
2023-11-01T06:26:28.077Z,100.00
2023-11-01T06:28:57.245Z,100.00
2023-11-01T06:31:30.187Z,100.00
2023-11-01T06:34:01.343Z,100.00
2023-11-01T06:36:30.953Z,100.00
2023-11-01T06:39:01.653Z,100.00
2023-11-01T06:41:32.550Z,100.00
2023-11-01T06:44:03.484Z,100.00
2023-11-01T06:46:37.020Z,100.00
2023-11-01T06:49:06.996Z,100.00
2023-11-01T06:51:37.067Z,100.00
2023-11-01T06:54:15.415Z,100.00
2023-11-01T06:56:47.195Z,100.00
2023-11-01T06:59:17.646Z,100.00
2023-11-01T07:01:49.061Z,100.00
2023-11-01T07:04:18.190Z,100.00
2023-11-01T07:06:47.825Z,100.00
2023-11-01T07:09:17.379Z,100.00
2023-11-01T07:11:48.234Z,100.00
2023-11-01T07:14:19.146Z,100.00
2023-11-01T07:16:49.436Z,100.00
2023-11-01T07:19:21.004Z,100.00
2023-11-01T07:21:49.832Z,100.00
2023-11-01T07:24:19.060Z,100.00
2023-11-01T07:26:49.900Z,100.00
2023-11-01T07:29:19.422Z,100.00
2023-11-01T07:31:50.019Z,100.00
2023-11-01T07:34:20.435Z,100.00
2023-11-01T07:36:50.195Z,100.00
2023-11-01T07:39:20.122Z,100.00
2023-11-01T07:41:49.629Z,100.00
2023-11-01T07:44:20.481Z,100.00
2023-11-01T07:46:52.553Z,100.00
2023-11-01T07:49:27.715Z,100.00
2023-11-01T07:51:56.919Z,100.00
2023-11-01T07:54:26.726Z,100.00
2023-11-01T07:56:57.741Z,100.00
2023-11-01T07:59:29.260Z,100.00
2023-11-01T08:02:03.533Z,100.00
2023-11-01T08:04:33.444Z,100.00
2023-11-01T08:07:04.214Z,100.00
2023-11-01T08:09:33.051Z,100.00
2023-11-01T08:12:05.679Z,100.00
2023-11-01T08:14:35.123Z,100.00
2023-11-01T08:17:07.334Z,100.00
2023-11-01T08:19:37.129Z,100.00
2023-11-01T08:22:07.328Z,100.00
2023-11-01T08:24:36.950Z,100.00
2023-11-01T08:27:13.295Z,100.00
2023-11-01T08:29:44.508Z,100.00
2023-11-01T08:32:15.580Z,100.00
2023-11-01T08:34:47.660Z,100.00
2023-11-01T08:37:17.237Z,100.00
2023-11-01T08:39:46.638Z,100.00
2023-11-01T08:42:17.996Z,100.00
2023-11-01T08:44:47.874Z,100.00
2023-11-01T08:47:40.165Z,100.00
2023-11-01T08:50:13.427Z,100.00
2023-11-01T08:52:44.476Z,100.00
2023-11-01T08:55:15.771Z,100.00
2023-11-01T08:57:46.643Z,100.00
2023-11-01T09:00:17.390Z,100.00
2023-11-01T09:02:47.940Z,100.00
2023-11-01T09:05:17.804Z,100.00
2023-11-01T09:07:50.874Z,100.00
2023-11-01T09:10:23.258Z,100.00
2023-11-01T09:12:53.286Z,100.00
2023-11-01T09:15:23.116Z,100.00
2023-11-01T09:17:56.249Z,99.78
2023-11-01T09:20:29.618Z,99.35
2023-11-01T09:23:00.018Z,100.00
2023-11-01T09:25:31.022Z,100.00
2023-11-01T09:28:00.780Z,100.00
2023-11-01T09:30:30.037Z,100.00
2023-11-01T09:33:07.179Z,97.27
2023-11-01T09:35:39.281Z,94.84
2023-11-01T09:38:10.090Z,92.19
2023-11-01T09:40:39.291Z,84.65
2023-11-01T09:43:14.933Z,73.87
2023-11-01T09:45:45.218Z,68.20
2023-11-01T09:48:18.660Z,65.22
2023-11-01T09:50:50.660Z,63.84
2023-11-01T09:53:24.813Z,62.09
2023-11-01T09:56:00.382Z,57.46
2023-11-01T09:58:32.007Z,54.02
2023-11-01T10:01:03.325Z,52.52
2023-11-01T10:03:36.142Z,52.06
2023-11-01T10:06:09.215Z,52.00
2023-11-01T10:08:38.732Z,51.54
2023-11-01T10:11:08.390Z,52.45
2023-11-01T10:13:37.604Z,54.37
2023-11-01T10:16:08.485Z,54.27
2023-11-01T10:18:42.047Z,53.47
2023-11-01T10:21:12.955Z,54.84
2023-11-01T10:23:42.026Z,54.14
2023-11-01T10:26:11.888Z,54.35
2023-11-01T10:28:43.730Z,53.70
2023-11-01T10:31:16.111Z,51.95
2023-11-01T10:33:49.408Z,52.83
2023-11-01T10:36:21.582Z,51.00
2023-11-01T10:38:53.842Z,51.85
2023-11-01T10:41:25.774Z,51.17
2023-11-01T10:43:56.827Z,54.80
2023-11-01T10:46:27.120Z,54.96
2023-11-01T10:48:57.759Z,54.45
2023-11-01T10:51:26.925Z,54.07
2023-11-01T10:54:04.692Z,50.48
2023-11-01T10:56:40.709Z,50.38
2023-11-01T10:59:16.560Z,48.04
2023-11-01T11:01:53.234Z,46.77
2023-11-01T11:04:33.024Z,47.29
2023-11-01T11:07:24.409Z,45.27
2023-11-01T11:10:29.210Z,46.37
2023-11-01T11:13:33.958Z,45.43
2023-11-01T11:16:02.994Z,45.15
2023-11-01T11:19:01.040Z,45.70
2023-11-01T11:22:04.057Z,44.37
2023-11-01T11:24:59.207Z,43.48
2023-11-01T11:27:56.206Z,44.49
2023-11-01T11:31:04.733Z,43.49
2023-11-01T11:33:38.500Z,43.34
2023-11-01T11:36:14.901Z,42.73
2023-11-01T11:38:55.359Z,41.02
2023-11-01T11:41:29.206Z,42.17
2023-11-01T11:44:03.212Z,44.51
2023-11-01T11:46:37.417Z,44.66
2023-11-01T11:49:08.004Z,43.35
2023-11-01T11:51:39.048Z,46.38
2023-11-01T11:54:13.065Z,47.63
2023-11-01T11:56:44.008Z,46.04
2023-11-01T11:59:20.947Z,43.28
2023-11-01T12:01:53.004Z,41.40
2023-11-01T12:04:22.647Z,40.24
2023-11-01T12:06:53.531Z,41.58
2023-11-01T12:09:25.685Z,41.26
2023-11-01T12:11:56.006Z,44.96
2023-11-01T12:14:28.042Z,48.92
2023-11-01T12:17:01.683Z,50.78
2023-11-01T12:19:33.989Z,52.24
2023-11-01T12:22:09.391Z,52.57
2023-11-01T12:24:45.791Z,53.77
2023-11-01T12:27:18.917Z,54.28
2023-11-01T12:29:48.492Z,54.34
2023-11-01T12:32:18.615Z,54.32
2023-11-01T12:35:06.327Z,52.46
2023-11-01T12:37:37.120Z,49.05
2023-11-01T12:40:13.696Z,45.43
2023-11-01T12:42:47.169Z,44.32
2023-11-01T12:45:17.542Z,45.88
2023-11-01T12:47:48.300Z,43.97
2023-11-01T12:50:21.366Z,43.42
2023-11-01T12:52:51.424Z,42.75
2023-11-01T12:55:22.779Z,42.79
2023-11-01T12:57:55.974Z,44.11
2023-11-01T13:00:26.688Z,46.70
2023-11-01T13:02:56.252Z,48.97
2023-11-01T13:05:25.572Z,50.62
2023-11-01T13:07:58.223Z,51.39
2023-11-01T13:10:36.455Z,51.99
2023-11-01T13:13:07.745Z,52.40
2023-11-01T13:15:38.287Z,52.74
2023-11-01T13:18:12.946Z,52.92
2023-11-01T13:20:42.349Z,53.14
2023-11-01T13:23:12.177Z,54.21
2023-11-01T13:25:45.926Z,53.20
2023-11-01T13:28:14.934Z,53.04
2023-11-01T13:30:44.363Z,53.51
2023-11-01T13:33:18.806Z,53.87
2023-11-01T13:35:48.067Z,54.45
2023-11-01T13:38:17.620Z,53.96
2023-11-01T13:40:48.634Z,53.80
2023-11-01T13:43:18.521Z,54.19
2023-11-01T13:45:48.451Z,53.86
2023-11-01T13:48:19.599Z,54.20
2023-11-01T13:50:49.216Z,54.55
2023-11-01T13:53:21.214Z,54.66
2023-11-01T13:55:54.858Z,54.92
2023-11-01T13:58:27.834Z,55.54
2023-11-01T14:00:57.503Z,55.02
2023-11-01T14:03:27.201Z,55.02
2023-11-01T14:05:56.156Z,55.13
2023-11-01T14:08:25.118Z,54.78
2023-11-01T14:10:58.441Z,54.82
2023-11-01T14:13:28.421Z,54.34
2023-11-01T14:15:57.948Z,54.49
2023-11-01T14:18:30.265Z,54.23
2023-11-01T14:21:01.499Z,54.29
2023-11-01T14:23:31.530Z,53.92
2023-11-01T14:26:02.190Z,54.22
2023-11-01T14:28:34.334Z,54.16
2023-11-01T14:31:07.893Z,54.38
2023-11-01T14:33:37.366Z,54.71
2023-11-01T14:36:08.688Z,54.42
2023-11-01T14:38:38.439Z,55.18
2023-11-01T14:41:09.915Z,55.70
2023-11-01T14:43:39.513Z,56.26
2023-11-01T14:46:10.799Z,56.71
2023-11-01T14:48:40.302Z,57.08
2023-11-01T14:51:13.099Z,57.27
2023-11-01T14:53:43.023Z,57.40
2023-11-01T14:56:17.753Z,57.99
2023-11-01T14:58:50.121Z,58.23
2023-11-01T15:01:19.680Z,58.75
2023-11-01T15:03:50.102Z,59.74
2023-11-01T15:06:19.228Z,60.02
2023-11-01T15:08:48.465Z,60.56
2023-11-01T15:11:19.158Z,61.24
2023-11-01T15:13:48.808Z,61.73
2023-11-01T15:16:31.898Z,62.47
2023-11-01T15:19:00.866Z,63.11
2023-11-01T15:21:32.331Z,63.79
2023-11-01T15:24:03.177Z,64.49
2023-11-01T15:26:37.985Z,64.88
2023-11-01T15:29:07.663Z,65.37
2023-11-01T15:31:38.497Z,65.67
2023-11-01T15:34:09.865Z,66.34
2023-11-01T15:36:39.010Z,66.84
2023-11-01T15:39:08.379Z,67.92
2023-11-01T15:41:39.242Z,67.58
2023-11-01T15:44:09.162Z,67.44
2023-11-01T15:46:41.497Z,67.60
2023-11-01T15:49:14.690Z,67.81
2023-11-01T15:51:44.729Z,67.59
2023-11-01T15:54:14.627Z,67.60
2023-11-01T15:56:46.429Z,67.90
2023-11-01T15:59:24.733Z,68.27
2023-11-01T16:01:55.757Z,68.23
2023-11-01T16:04:27.243Z,69.32
2023-11-01T16:06:57.979Z,68.97
2023-11-01T16:09:27.980Z,69.51
2023-11-01T16:12:00.455Z,69.93
2023-11-01T16:14:30.377Z,69.90
2023-11-01T16:17:01.969Z,70.40
2023-11-01T16:19:34.720Z,70.52
2023-11-01T16:22:04.680Z,71.44
2023-11-01T16:24:34.349Z,71.34
2023-11-01T16:27:05.477Z,71.84
2023-11-01T16:29:34.427Z,72.17
2023-11-01T16:32:03.737Z,72.97
2023-11-01T16:34:33.009Z,72.68
2023-11-01T16:37:02.975Z,72.79
2023-11-01T16:39:32.340Z,73.22
2023-11-01T16:42:02.029Z,73.51
2023-11-01T16:44:32.778Z,73.95
2023-11-01T16:47:02.324Z,74.07
2023-11-01T16:49:31.446Z,74.63
2023-11-01T16:52:02.008Z,74.51
2023-11-01T16:54:31.158Z,74.35
2023-11-01T16:57:00.234Z,74.78
2023-11-01T16:59:29.717Z,75.00
2023-11-01T17:02:03.833Z,74.92
2023-11-01T17:04:36.065Z,74.70
2023-11-01T17:07:05.437Z,74.85
2023-11-01T17:09:37.763Z,75.52
2023-11-01T17:12:09.010Z,76.85
2023-11-01T17:14:39.848Z,77.17
2023-11-01T17:17:10.328Z,76.85
2023-11-01T17:19:40.187Z,77.13
2023-11-01T17:22:30.062Z,77.40
2023-11-01T17:24:59.921Z,77.11
2023-11-01T17:27:36.391Z,76.96
2023-11-01T17:30:07.855Z,77.20
2023-11-01T17:32:40.472Z,76.79
2023-11-01T17:35:11.814Z,76.61
2023-11-01T17:37:50.181Z,76.61
2023-11-01T17:40:20.718Z,76.97
2023-11-01T17:42:50.284Z,77.01
2023-11-01T17:45:19.538Z,77.78
2023-11-01T17:47:51.082Z,78.13
2023-11-01T17:50:20.563Z,78.77
2023-11-01T17:52:53.814Z,78.88
2023-11-01T17:55:23.788Z,78.78
2023-11-01T17:57:53.456Z,79.05
2023-11-01T18:00:28.915Z,79.36
2023-11-01T18:03:19.042Z,79.83
2023-11-01T18:05:50.037Z,81.00
2023-11-01T18:08:21.201Z,80.57
2023-11-01T18:10:53.181Z,80.89
2023-11-01T18:13:24.579Z,81.93
2023-11-01T18:15:57.144Z,82.11
2023-11-01T18:18:45.057Z,82.30
2023-11-01T18:21:21.349Z,82.94
2023-11-01T18:23:59.721Z,84.08
2023-11-01T18:26:32.755Z,84.59
2023-11-01T18:29:03.432Z,86.26
2023-11-01T18:31:35.730Z,85.10
2023-11-01T18:34:11.752Z,85.42
2023-11-01T18:36:46.966Z,85.64
2023-11-01T18:39:36.863Z,85.49
2023-11-01T18:42:11.732Z,84.98
2023-11-01T18:44:45.355Z,84.86
2023-11-01T18:47:21.685Z,84.86
2023-11-01T18:49:59.802Z,84.65
2023-11-01T18:52:31.043Z,85.57
2023-11-01T18:55:01.085Z,85.26
2023-11-01T18:57:34.038Z,85.06
2023-11-01T19:00:04.112Z,85.77
2023-11-01T19:03:08.112Z,85.31
2023-11-01T19:05:42.797Z,84.11
2023-11-01T19:08:15.181Z,84.41
2023-11-01T19:10:54.879Z,85.23
2023-11-01T19:13:25.054Z,85.40
2023-11-01T19:16:13.604Z,85.73
2023-11-01T19:18:44.502Z,86.24
2023-11-01T19:21:16.205Z,87.28
2023-11-01T19:23:48.314Z,86.98
2023-11-01T19:26:20.363Z,86.95
2023-11-01T19:28:53.266Z,86.97
2023-11-01T19:31:23.421Z,87.28
2023-11-01T19:33:55.670Z,88.40
2023-11-01T19:36:28.638Z,89.37
2023-11-01T19:38:58.663Z,90.36
2023-11-01T19:41:30.792Z,91.70
2023-11-01T19:44:05.194Z,92.42
2023-11-01T19:46:38.111Z,93.51
2023-11-01T19:49:08.418Z,94.45
2023-11-01T19:51:42.951Z,96.18
2023-11-01T19:54:12.585Z,96.40
2023-11-01T19:56:42.557Z,97.43
2023-11-01T19:59:12.733Z,99.05
2023-11-01T20:01:42.806Z,100.00
2023-11-01T20:04:13.223Z,100.00
2023-11-01T20:06:46.405Z,100.00
2023-11-01T20:09:17.151Z,100.00
2023-11-01T20:11:49.009Z,100.00
2023-11-01T20:14:24.563Z,100.00
2023-11-01T20:16:54.288Z,100.00
2023-11-01T20:19:26.377Z,100.00
2023-11-01T20:21:58.264Z,100.00
2023-11-01T20:24:27.527Z,100.00
2023-11-01T20:26:57.795Z,100.00
2023-11-01T20:29:27.722Z,100.00
2023-11-01T20:31:56.951Z,100.00
2023-11-01T20:34:26.354Z,100.00
2023-11-01T20:36:55.283Z,100.00
2023-11-01T20:39:29.102Z,100.00
2023-11-01T20:41:58.311Z,100.00
2023-11-01T20:44:28.322Z,100.00
2023-11-01T20:47:03.555Z,100.00
2023-11-01T20:49:33.222Z,100.00
2023-11-01T20:52:03.697Z,100.00
2023-11-01T20:54:35.495Z,100.00
2023-11-01T20:57:10.292Z,100.00
2023-11-01T20:59:43.960Z,100.00
2023-11-01T21:02:18.199Z,100.00
2023-11-01T21:04:48.794Z,100.00
2023-11-01T21:07:18.629Z,100.00
2023-11-01T21:09:49.590Z,100.00
2023-11-01T21:12:23.701Z,100.00
2023-11-01T21:14:53.548Z,100.00
2023-11-01T21:17:23.736Z,100.00
2023-11-01T21:19:55.388Z,100.00
2023-11-01T21:22:27.393Z,100.00
2023-11-01T21:24:59.370Z,99.81
2023-11-01T21:27:28.286Z,98.32
2023-11-01T21:29:59.305Z,97.13
2023-11-01T21:32:29.783Z,96.13
2023-11-01T21:35:01.852Z,95.28
2023-11-01T21:37:32.116Z,94.59
2023-11-01T21:40:02.904Z,94.85
2023-11-01T21:42:36.608Z,95.02
2023-11-01T21:45:15.635Z,95.01
2023-11-01T21:47:44.627Z,95.31
2023-11-01T21:50:50.260Z,95.69
2023-11-01T21:53:19.453Z,97.24
2023-11-01T21:55:56.134Z,100.00
2023-11-01T21:58:28.107Z,100.00
2023-11-01T22:00:59.890Z,100.00
2023-11-01T22:03:40.986Z,100.00
2023-11-01T22:06:16.541Z,100.00
2023-11-01T22:08:59.298Z,100.00
2023-11-01T22:11:32.237Z,100.00
2023-11-01T22:14:11.032Z,100.00
2023-11-01T22:16:42.365Z,100.00
2023-11-01T22:19:34.689Z,98.52
2023-11-01T22:22:06.572Z,96.29
2023-11-01T22:24:38.729Z,94.69
2023-11-01T22:27:11.444Z,93.14
2023-11-01T22:29:45.534Z,93.01
2023-11-01T22:32:25.932Z,92.69
2023-11-01T22:34:56.548Z,92.44
2023-11-01T22:37:27.285Z,93.42
2023-11-01T22:40:16.676Z,93.96
2023-11-01T22:42:59.709Z,93.09
2023-11-01T22:45:37.732Z,94.06
2023-11-01T22:48:08.445Z,97.65
2023-11-01T22:50:38.235Z,100.00
2023-11-01T22:53:10.578Z,100.00
2023-11-01T22:55:42.385Z,100.00
2023-11-01T22:58:20.061Z,100.00
2023-11-01T23:00:51.601Z,100.00
2023-11-01T23:03:21.711Z,100.00
2023-11-01T23:05:51.806Z,100.00
2023-11-01T23:08:21.305Z,100.00
2023-11-01T23:10:53.849Z,100.00
2023-11-01T23:13:27.134Z,100.00
2023-11-01T23:15:56.469Z,100.00
2023-11-01T23:18:25.867Z,100.00
2023-11-01T23:20:58.712Z,100.00
2023-11-01T23:23:34.821Z,100.00
2023-11-01T23:26:06.806Z,100.00
2023-11-01T23:29:06.753Z,100.00
2023-11-01T23:31:55.506Z,100.00
2023-11-01T23:34:53.255Z,100.00
2023-11-01T23:37:36.105Z,100.00
2023-11-01T23:40:16.044Z,100.00
2023-11-01T23:42:49.460Z,100.00
2023-11-01T23:46:07.149Z,100.00
2023-11-01T23:48:37.956Z,100.00
2023-11-01T23:51:12.000Z,100.00
2023-11-01T23:53:42.508Z,100.00
2023-11-01T23:56:22.034Z,100.00
2023-11-01T23:58:55.157Z,100.00
